sensor_id;sensor_type;location;lat;lon;timestamp;pressure;altitude;pressure_sealevel;temperature;humidity
54920;BME280;63804;53.120;8.764;2023-08-21T00:02:20;102366.22;;;19.14;75.27
54920;BME280;63804;53.120;8.764;2023-08-21T00:04:47;102359.81;;;19.06;75.64
54920;BME280;63804;53.120;8.764;2023-08-21T00:07:15;102353.59;;;19.26;75.03
54920;BME280;63804;53.120;8.764;2023-08-21T00:09:42;102358.56;;;19.31;74.54
54920;BME280;63804;53.120;8.764;2023-08-21T00:12:09;102370.81;;;19.03;75.58
54920;BME280;63804;53.120;8.764;2023-08-21T00:14:37;102369.84;;;18.92;76.66
54920;BME280;63804;53.120;8.764;2023-08-21T00:17:04;102376.88;;;19.16;75.74
54920;BME280;63804;53.120;8.764;2023-08-21T00:19:32;102376.56;;;19.19;75.34
54920;BME280;63804;53.120;8.764;2023-08-21T00:22:00;102374.88;;;19.18;75.22
54920;BME280;63804;53.120;8.764;2023-08-21T00:24:28;102379.84;;;19.22;74.86
54920;BME280;63804;53.120;8.764;2023-08-21T00:26:55;102375.41;;;19.12;75.41
54920;BME280;63804;53.120;8.764;2023-08-21T00:29:23;102374.72;;;18.98;76.00
54920;BME280;63804;53.120;8.764;2023-08-21T00:31:50;102369.91;;;19.13;75.35
54920;BME280;63804;53.120;8.764;2023-08-21T00:34:17;102372.72;;;19.33;74.65
54920;BME280;63804;53.120;8.764;2023-08-21T00:36:45;102364.53;;;19.34;74.38
54920;BME280;63804;53.120;8.764;2023-08-21T00:39:12;102369.31;;;19.31;74.52
54920;BME280;63804;53.120;8.764;2023-08-21T00:41:40;102367.03;;;19.05;75.38
54920;BME280;63804;53.120;8.764;2023-08-21T00:44:07;102356.19;;;18.95;76.53
54920;BME280;63804;53.120;8.764;2023-08-21T00:46:35;102363.00;;;18.99;76.08
54920;BME280;63804;53.120;8.764;2023-08-21T00:49:02;102363.91;;;18.89;76.77
54920;BME280;63804;53.120;8.764;2023-08-21T00:51:30;102361.75;;;19.04;76.03
54920;BME280;63804;53.120;8.764;2023-08-21T00:53:58;102368.25;;;19.01;75.64
54920;BME280;63804;53.120;8.764;2023-08-21T00:56:25;102366.16;;;19.05;75.69
54920;BME280;63804;53.120;8.764;2023-08-21T00:58:53;102366.38;;;19.13;74.87
54920;BME280;63804;53.120;8.764;2023-08-21T01:01:24;102362.94;;;19.11;75.42
54920;BME280;63804;53.120;8.764;2023-08-21T01:03:52;102370.81;;;19.03;75.35
54920;BME280;63804;53.120;8.764;2023-08-21T01:06:20;102369.69;;;19.05;75.16
54920;BME280;63804;53.120;8.764;2023-08-21T01:09:17;102370.75;;;19.14;74.66
54920;BME280;63804;53.120;8.764;2023-08-21T01:15:02;102363.53;;;19.14;75.15
54920;BME280;63804;53.120;8.764;2023-08-21T01:17:36;102362.28;;;18.97;75.46
54920;BME280;63804;53.120;8.764;2023-08-21T01:20:04;102359.34;;;19.01;75.67
54920;BME280;63804;53.120;8.764;2023-08-21T01:22:38;102370.91;;;19.12;74.64
54920;BME280;63804;53.120;8.764;2023-08-21T01:25:07;102359.81;;;18.73;75.48
54920;BME280;63804;53.120;8.764;2023-08-21T01:27:35;102364.66;;;18.68;76.52
54920;BME280;63804;53.120;8.764;2023-08-21T01:30:04;102359.50;;;18.88;75.60
54920;BME280;63804;53.120;8.764;2023-08-21T01:32:55;102360.91;;;19.03;74.88
54920;BME280;63804;53.120;8.764;2023-08-21T01:35:25;102366.38;;;18.81;75.62
54920;BME280;63804;53.120;8.764;2023-08-21T01:37:53;102362.09;;;18.89;75.33
54920;BME280;63804;53.120;8.764;2023-08-21T01:40:22;102365.91;;;18.75;75.70
54920;BME280;63804;53.120;8.764;2023-08-21T01:42:52;102375.16;;;18.83;75.97
54920;BME280;63804;53.120;8.764;2023-08-21T01:45:21;102370.84;;;18.91;75.28
54920;BME280;63804;53.120;8.764;2023-08-21T01:47:48;102375.16;;;18.83;75.42
54920;BME280;63804;53.120;8.764;2023-08-21T01:50:16;102369.69;;;18.50;76.84
54920;BME280;63804;53.120;8.764;2023-08-21T01:52:43;102377.88;;;18.60;76.49
54920;BME280;63804;53.120;8.764;2023-08-21T01:55:11;102384.84;;;18.74;75.97
54920;BME280;63804;53.120;8.764;2023-08-21T01:57:39;102381.38;;;18.83;75.72
54920;BME280;63804;53.120;8.764;2023-08-21T02:00:06;102376.47;;;18.88;75.37
54920;BME280;63804;53.120;8.764;2023-08-21T02:02:35;102378.25;;;18.56;76.45
54920;BME280;63804;53.120;8.764;2023-08-21T02:05:03;102380.06;;;18.66;76.15
54920;BME280;63804;53.120;8.764;2023-08-21T02:07:32;102376.63;;;18.75;76.08
54920;BME280;63804;53.120;8.764;2023-08-21T02:09:59;102373.94;;;18.75;75.94
54920;BME280;63804;53.120;8.764;2023-08-21T02:12:27;102382.84;;;18.65;75.97
54920;BME280;63804;53.120;8.764;2023-08-21T02:14:55;102379.59;;;18.50;77.19
54920;BME280;63804;53.120;8.764;2023-08-21T02:17:22;102382.59;;;18.68;76.56
54920;BME280;63804;53.120;8.764;2023-08-21T02:19:49;102383.84;;;18.75;76.23
54920;BME280;63804;53.120;8.764;2023-08-21T02:22:17;102380.38;;;18.84;75.38
54920;BME280;63804;53.120;8.764;2023-08-21T02:24:44;102378.69;;;18.83;75.28
54920;BME280;63804;53.120;8.764;2023-08-21T02:27:12;102380.78;;;18.80;75.24
54920;BME280;63804;53.120;8.764;2023-08-21T02:29:39;102382.22;;;18.84;75.15
54920;BME280;63804;53.120;8.764;2023-08-21T02:32:07;102378.22;;;18.67;75.90
54920;BME280;63804;53.120;8.764;2023-08-21T02:34:34;102383.69;;;18.65;75.79
54920;BME280;63804;53.120;8.764;2023-08-21T02:37:01;102386.03;;;18.70;75.48
54920;BME280;63804;53.120;8.764;2023-08-21T02:39:30;102390.78;;;18.66;75.65
54920;BME280;63804;53.120;8.764;2023-08-21T02:41:57;102390.28;;;18.61;75.82
54920;BME280;63804;53.120;8.764;2023-08-21T02:44:24;102392.50;;;18.67;75.72
54920;BME280;63804;53.120;8.764;2023-08-21T02:46:52;102390.84;;;18.44;76.16
54920;BME280;63804;53.120;8.764;2023-08-21T02:49:19;102390.34;;;18.39;76.71
54920;BME280;63804;53.120;8.764;2023-08-21T02:51:47;102389.09;;;18.43;76.15
54920;BME280;63804;53.120;8.764;2023-08-21T02:54:14;102397.19;;;18.20;77.24
54920;BME280;63804;53.120;8.764;2023-08-21T02:56:42;102404.50;;;18.18;76.95
54920;BME280;63804;53.120;8.764;2023-08-21T02:59:09;102411.94;;;18.26;76.89
54920;BME280;63804;53.120;8.764;2023-08-21T03:01:36;102406.06;;;18.43;76.56
54920;BME280;63804;53.120;8.764;2023-08-21T03:04:04;102410.56;;;18.43;76.83
54920;BME280;63804;53.120;8.764;2023-08-21T03:06:31;102400.09;;;18.40;76.64
54920;BME280;63804;53.120;8.764;2023-08-21T03:08:59;102406.69;;;18.47;76.82
54920;BME280;63804;53.120;8.764;2023-08-21T03:11:26;102396.91;;;18.57;76.21
54920;BME280;63804;53.120;8.764;2023-08-21T03:13:54;102408.47;;;18.58;76.33
54920;BME280;63804;53.120;8.764;2023-08-21T03:16:21;102402.88;;;18.49;76.53
54920;BME280;63804;53.120;8.764;2023-08-21T03:18:59;102403.50;;;18.53;76.27
54920;BME280;63804;53.120;8.764;2023-08-21T03:21:27;102398.75;;;18.45;76.74
54920;BME280;63804;53.120;8.764;2023-08-21T03:23:56;102401.78;;;18.52;76.03
54920;BME280;63804;53.120;8.764;2023-08-21T03:26:25;102393.38;;;18.45;76.02
54920;BME280;63804;53.120;8.764;2023-08-21T03:28:53;102409.09;;;18.50;76.04
54920;BME280;63804;53.120;8.764;2023-08-21T03:31:20;102402.91;;;18.27;76.78
54920;BME280;63804;53.120;8.764;2023-08-21T03:33:48;102400.13;;;18.17;77.19
54920;BME280;63804;53.120;8.764;2023-08-21T03:36:15;102397.31;;;18.08;77.78
54920;BME280;63804;53.120;8.764;2023-08-21T03:38:42;102396.06;;;18.23;76.99
54920;BME280;63804;53.120;8.764;2023-08-21T03:41:11;102394.50;;;18.32;76.56
54920;BME280;63804;53.120;8.764;2023-08-21T03:43:38;102397.91;;;18.34;76.15
54920;BME280;63804;53.120;8.764;2023-08-21T03:46:06;102391.84;;;18.20;76.20
54920;BME280;63804;53.120;8.764;2023-08-21T03:48:33;102371.31;;;17.86;77.33
54920;BME280;63804;53.120;8.764;2023-08-21T03:51:00;102402.03;;;18.04;76.97
54920;BME280;63804;53.120;8.764;2023-08-21T03:53:28;102389.88;;;18.11;76.88
54920;BME280;63804;53.120;8.764;2023-08-21T03:55:56;102392.06;;;18.17;76.14
54920;BME280;63804;53.120;8.764;2023-08-21T03:58:23;102398.13;;;17.86;77.30
54920;BME280;63804;53.120;8.764;2023-08-21T04:00:55;102392.97;;;17.71;78.06
54920;BME280;63804;53.120;8.764;2023-08-21T04:03:22;102399.91;;;17.74;78.15
54920;BME280;63804;53.120;8.764;2023-08-21T04:05:50;102401.63;;;17.64;78.23
54920;BME280;63804;53.120;8.764;2023-08-21T04:08:17;102399.03;;;17.62;78.51
54920;BME280;63804;53.120;8.764;2023-08-21T04:10:44;102401.03;;;17.71;78.61
54920;BME280;63804;53.120;8.764;2023-08-21T04:13:12;102401.94;;;17.94;77.52
54920;BME280;63804;53.120;8.764;2023-08-21T04:15:44;102397.69;;;18.14;76.50
54920;BME280;63804;53.120;8.764;2023-08-21T04:18:12;102394.25;;;18.12;76.60
54920;BME280;63804;53.120;8.764;2023-08-21T04:20:44;102391.94;;;18.08;76.35
54920;BME280;63804;53.120;8.764;2023-08-21T04:23:11;102394.25;;;18.12;75.90
54920;BME280;63804;53.120;8.764;2023-08-21T04:25:39;102400.50;;;18.13;75.85
54920;BME280;63804;53.120;8.764;2023-08-21T04:28:06;102403.41;;;18.10;75.38
54920;BME280;63804;53.120;8.764;2023-08-21T04:30:34;102401.56;;;18.10;75.49
54920;BME280;63804;53.120;8.764;2023-08-21T04:33:02;102401.19;;;17.92;75.74
54920;BME280;63804;53.120;8.764;2023-08-21T04:35:30;102412.03;;;17.80;76.76
54920;BME280;63804;53.120;8.764;2023-08-21T04:37:57;102409.59;;;17.88;76.38
54920;BME280;63804;53.120;8.764;2023-08-21T04:40:24;102402.19;;;18.02;75.97
54920;BME280;63804;53.120;8.764;2023-08-21T04:42:52;102399.25;;;18.06;75.70
54920;BME280;63804;53.120;8.764;2023-08-21T04:45:19;102403.75;;;17.83;76.43
54920;BME280;63804;53.120;8.764;2023-08-21T04:47:46;102401.44;;;18.00;75.83
54920;BME280;63804;53.120;8.764;2023-08-21T04:50:14;102398.75;;;18.12;75.63
54920;BME280;63804;53.120;8.764;2023-08-21T04:52:42;102404.03;;;18.13;75.56
54920;BME280;63804;53.120;8.764;2023-08-21T04:55:10;102399.28;;;18.17;75.28
54920;BME280;63804;53.120;8.764;2023-08-21T04:57:37;102403.78;;;18.16;75.30
54920;BME280;63804;53.120;8.764;2023-08-21T05:00:05;102400.84;;;18.19;74.77
54920;BME280;63804;53.120;8.764;2023-08-21T05:02:33;102401.19;;;18.03;75.39
54920;BME280;63804;53.120;8.764;2023-08-21T05:05:01;102404.41;;;17.73;76.54
54920;BME280;63804;53.120;8.764;2023-08-21T05:07:29;102403.53;;;17.62;77.19
54920;BME280;63804;53.120;8.764;2023-08-21T05:09:59;102406.69;;;17.91;76.69
54920;BME280;63804;53.120;8.764;2023-08-21T05:12:28;102403.38;;;17.76;77.00
54920;BME280;63804;53.120;8.764;2023-08-21T05:14:56;102408.31;;;17.69;77.43
54920;BME280;63804;53.120;8.764;2023-08-21T05:17:24;102417.81;;;17.73;77.70
54920;BME280;63804;53.120;8.764;2023-08-21T05:19:51;102411.41;;;17.76;77.74
54920;BME280;63804;53.120;8.764;2023-08-21T05:22:19;102413.03;;;17.90;77.98
54920;BME280;63804;53.120;8.764;2023-08-21T05:24:46;102420.69;;;17.94;77.65
54920;BME280;63804;53.120;8.764;2023-08-21T05:27:14;102416.91;;;17.97;77.70
54920;BME280;63804;53.120;8.764;2023-08-21T05:29:42;102422.88;;;17.89;78.24
54920;BME280;63804;53.120;8.764;2023-08-21T05:32:09;102422.03;;;17.89;78.63
54920;BME280;63804;53.120;8.764;2023-08-21T05:34:37;102427.53;;;17.98;78.54
54920;BME280;63804;53.120;8.764;2023-08-21T05:37:04;102416.44;;;18.25;77.64
54920;BME280;63804;53.120;8.764;2023-08-21T05:39:31;102423.13;;;18.31;77.50
54920;BME280;63804;53.120;8.764;2023-08-21T05:41:59;102419.97;;;18.26;77.57
54920;BME280;63804;53.120;8.764;2023-08-21T05:44:26;102420.72;;;18.17;78.30
54920;BME280;63804;53.120;8.764;2023-08-21T05:46:54;102415.69;;;18.23;78.95
54920;BME280;63804;53.120;8.764;2023-08-21T05:49:21;102428.03;;;18.26;78.56
54920;BME280;63804;53.120;8.764;2023-08-21T05:51:48;102429.97;;;18.35;78.52
54920;BME280;63804;53.120;8.764;2023-08-21T05:54:16;102434.09;;;18.50;78.54
54920;BME280;63804;53.120;8.764;2023-08-21T05:56:43;102431.16;;;18.65;78.19
54920;BME280;63804;53.120;8.764;2023-08-21T05:59:10;102422.72;;;18.81;78.11
54920;BME280;63804;53.120;8.764;2023-08-21T06:01:39;102434.03;;;18.95;77.85
54920;BME280;63804;53.120;8.764;2023-08-21T06:04:06;102427.09;;;19.04;77.51
54920;BME280;63804;53.120;8.764;2023-08-21T06:06:34;102425.97;;;19.07;77.45
54920;BME280;63804;53.120;8.764;2023-08-21T06:09:01;102434.16;;;19.05;77.49
54920;BME280;63804;53.120;8.764;2023-08-21T06:11:29;102432.53;;;19.14;77.24
54920;BME280;63804;53.120;8.764;2023-08-21T06:13:56;102429.06;;;19.23;76.75
54920;BME280;63804;53.120;8.764;2023-08-21T06:16:24;102438.31;;;19.30;76.51
54920;BME280;63804;53.120;8.764;2023-08-21T06:18:51;102436.97;;;19.36;76.25
54920;BME280;63804;53.120;8.764;2023-08-21T06:21:19;102437.16;;;19.44;76.15
54920;BME280;63804;53.120;8.764;2023-08-21T06:23:46;102439.59;;;19.47;76.14
54920;BME280;63804;53.120;8.764;2023-08-21T06:26:13;102438.22;;;19.53;76.18
54920;BME280;63804;53.120;8.764;2023-08-21T06:28:41;102437.09;;;19.55;76.15
54920;BME280;63804;53.120;8.764;2023-08-21T06:31:08;102442.47;;;19.55;75.73
54920;BME280;63804;53.120;8.764;2023-08-21T06:33:36;102446.03;;;19.56;75.91
54920;BME280;63804;53.120;8.764;2023-08-21T06:36:03;102447.00;;;19.55;75.66
54920;BME280;63804;53.120;8.764;2023-08-21T06:38:31;102449.31;;;19.59;75.77
54920;BME280;63804;53.120;8.764;2023-08-21T06:41:01;102446.84;;;19.67;76.07
54920;BME280;63804;53.120;8.764;2023-08-21T06:43:35;102442.06;;;19.71;75.53
54920;BME280;63804;53.120;8.764;2023-08-21T06:46:02;102446.06;;;19.77;75.17
54920;BME280;63804;53.120;8.764;2023-08-21T06:48:29;102447.88;;;19.76;75.08
54920;BME280;63804;53.120;8.764;2023-08-21T06:50:57;102452.59;;;19.84;74.68
54920;BME280;63804;53.120;8.764;2023-08-21T06:53:24;102452.09;;;19.90;75.14
54920;BME280;63804;53.120;8.764;2023-08-21T06:55:51;102449.13;;;19.93;74.88
54920;BME280;63804;53.120;8.764;2023-08-21T06:58:19;102448.13;;;19.94;74.34
54920;BME280;63804;53.120;8.764;2023-08-21T07:00:46;102459.16;;;19.91;74.84
54920;BME280;63804;53.120;8.764;2023-08-21T07:03:14;102455.34;;;19.93;74.49
54920;BME280;63804;53.120;8.764;2023-08-21T07:05:46;102457.25;;;20.03;74.25
54920;BME280;63804;53.120;8.764;2023-08-21T07:08:14;102461.38;;;20.07;73.99
54920;BME280;63804;53.120;8.764;2023-08-21T07:10:41;102465.81;;;20.17;73.86
54920;BME280;63804;53.120;8.764;2023-08-21T07:13:08;102455.91;;;20.18;73.33
54920;BME280;63804;53.120;8.764;2023-08-21T07:15:36;102451.25;;;20.20;73.21
54920;BME280;63804;53.120;8.764;2023-08-21T07:18:03;102455.91;;;20.18;73.27
54920;BME280;63804;53.120;8.764;2023-08-21T07:20:31;102455.53;;;20.23;73.36
54920;BME280;63804;53.120;8.764;2023-08-21T07:22:58;102460.34;;;20.29;73.27
54920;BME280;63804;53.120;8.764;2023-08-21T07:25:26;102456.28;;;20.34;72.05
54920;BME280;63804;53.120;8.764;2023-08-21T07:27:55;102461.53;;;20.36;71.35
54920;BME280;63804;53.120;8.764;2023-08-21T07:30:22;102464.78;;;20.39;71.90
54920;BME280;63804;53.120;8.764;2023-08-21T07:32:52;102469.06;;;20.42;71.53
54920;BME280;63804;53.120;8.764;2023-08-21T07:35:19;102462.84;;;20.41;71.68
54920;BME280;63804;53.120;8.764;2023-08-21T07:37:47;102466.97;;;20.45;70.83
54920;BME280;63804;53.120;8.764;2023-08-21T07:40:15;102468.13;;;20.53;71.06
54920;BME280;63804;53.120;8.764;2023-08-21T07:42:42;102476.78;;;20.56;71.04
54920;BME280;63804;53.120;8.764;2023-08-21T07:45:10;102465.31;;;20.54;71.13
54920;BME280;63804;53.120;8.764;2023-08-21T07:47:38;102473.13;;;20.57;70.70
54920;BME280;63804;53.120;8.764;2023-08-21T07:50:06;102467.31;;;20.62;70.01
54920;BME280;63804;53.120;8.764;2023-08-21T07:52:34;102477.69;;;20.66;69.92
54920;BME280;63804;53.120;8.764;2023-08-21T07:55:03;102472.03;;;20.69;69.18
54920;BME280;63804;53.120;8.764;2023-08-21T07:57:31;102474.56;;;20.71;68.68
54920;BME280;63804;53.120;8.764;2023-08-21T07:59:58;102483.38;;;20.73;68.38
54920;BME280;63804;53.120;8.764;2023-08-21T08:02:26;102478.84;;;20.74;68.90
54920;BME280;63804;53.120;8.764;2023-08-21T08:04:53;102481.97;;;20.79;68.52
54920;BME280;63804;53.120;8.764;2023-08-21T08:07:21;102480.25;;;20.78;68.71
54920;BME280;63804;53.120;8.764;2023-08-21T08:09:48;102482.41;;;20.84;68.79
54920;BME280;63804;53.120;8.764;2023-08-21T08:12:16;102482.00;;;20.88;68.63
54920;BME280;63804;53.120;8.764;2023-08-21T08:14:43;102478.31;;;20.89;67.41
54920;BME280;63804;53.120;8.764;2023-08-21T08:17:11;102474.91;;;20.87;66.98
54920;BME280;63804;53.120;8.764;2023-08-21T08:19:38;102477.19;;;20.92;66.96
54920;BME280;63804;53.120;8.764;2023-08-21T08:22:05;102469.69;;;20.96;66.71
54920;BME280;63804;53.120;8.764;2023-08-21T08:24:33;102466.41;;;21.02;67.01
54920;BME280;63804;53.120;8.764;2023-08-21T08:27:00;102468.41;;;21.09;66.87
54920;BME280;63804;53.120;8.764;2023-08-21T08:29:29;102466.44;;;21.11;nan
54920;BME280;63804;53.120;8.764;2023-08-21T08:31:57;102467.84;;;21.15;65.41
54920;BME280;63804;53.120;8.764;2023-08-21T08:34:24;102472.81;;;21.20;64.94
54920;BME280;63804;53.120;8.764;2023-08-21T08:36:52;102474.41;;;21.23;65.34
54920;BME280;63804;53.120;8.764;2023-08-21T08:39:19;102466.72;;;21.28;64.36
54920;BME280;63804;53.120;8.764;2023-08-21T08:41:51;102477.22;;;21.31;64.59
54920;BME280;63804;53.120;8.764;2023-08-21T08:44:24;102470.59;;;21.35;64.78
54920;BME280;63804;53.120;8.764;2023-08-21T08:46:53;102464.94;;;21.38;64.48
54920;BME280;63804;53.120;8.764;2023-08-21T08:49:22;102476.00;;;21.45;64.29
54920;BME280;63804;53.120;8.764;2023-08-21T08:51:50;102468.44;;;21.48;64.91
54920;BME280;63804;53.120;8.764;2023-08-21T08:54:19;102474.41;;;21.52;63.23
54920;BME280;63804;53.120;8.764;2023-08-21T08:56:47;102466.19;;;21.53;63.10
54920;BME280;63804;53.120;8.764;2023-08-21T08:59:16;102467.63;;;21.57;64.19
54920;BME280;63804;53.120;8.764;2023-08-21T09:01:43;102460.38;;;21.58;64.33
54920;BME280;63804;53.120;8.764;2023-08-21T09:04:11;102466.59;;;21.58;64.52
54920;BME280;63804;53.120;8.764;2023-08-21T09:06:38;102464.75;;;21.59;64.46
54920;BME280;63804;53.120;8.764;2023-08-21T09:09:07;102456.22;;;21.63;63.46
54920;BME280;63804;53.120;8.764;2023-08-21T09:11:34;102454.41;;;21.64;63.00
54920;BME280;63804;53.120;8.764;2023-08-21T09:14:02;102452.28;;;21.68;63.20
54920;BME280;63804;53.120;8.764;2023-08-21T09:16:29;102456.22;;;21.73;62.75
54920;BME280;63804;53.120;8.764;2023-08-21T09:18:57;102453.53;;;21.73;62.43
54920;BME280;63804;53.120;8.764;2023-08-21T09:21:25;102454.09;;;21.77;61.20
54920;BME280;63804;53.120;8.764;2023-08-21T09:23:59;102448.97;;;21.83;60.25
54920;BME280;63804;53.120;8.764;2023-08-21T09:26:30;102445.13;;;21.86;61.29
54920;BME280;63804;53.120;8.764;2023-08-21T09:29:03;102448.38;;;21.89;61.46
54920;BME280;63804;53.120;8.764;2023-08-21T09:31:32;102438.03;;;21.95;60.61
54920;BME280;63804;53.120;8.764;2023-08-21T09:34:03;102445.38;;;22.02;60.70
54920;BME280;63804;53.120;8.764;2023-08-21T09:36:33;102446.53;;;22.00;60.48
54920;BME280;63804;53.120;8.764;2023-08-21T09:39:02;102436.44;;;22.02;59.69
54920;BME280;63804;53.120;8.764;2023-08-21T09:41:30;102435.16;;;22.06;59.93
54920;BME280;63804;53.120;8.764;2023-08-21T09:43:58;102433.53;;;22.13;59.97
54920;BME280;63804;53.120;8.764;2023-08-21T09:46:31;102429.16;;;22.12;59.64
54920;BME280;63804;53.120;8.764;2023-08-21T09:48:58;102418.81;;;22.07;59.52
54920;BME280;63804;53.120;8.764;2023-08-21T09:51:27;102433.00;;;22.19;59.10
54920;BME280;63804;53.120;8.764;2023-08-21T09:53:55;102432.81;;;22.21;59.78
54920;BME280;63804;53.120;8.764;2023-08-21T09:56:23;102421.63;;;22.25;58.05
54920;BME280;63804;53.120;8.764;2023-08-21T09:58:51;102424.88;;;22.29;57.24
54920;BME280;63804;53.120;8.764;2023-08-21T10:01:20;102432.63;;;22.32;57.07
54920;BME280;63804;53.120;8.764;2023-08-21T10:03:48;102420.88;;;22.33;57.34
54920;BME280;63804;53.120;8.764;2023-08-21T10:06:17;102432.44;;;22.43;56.43
54920;BME280;63804;53.120;8.764;2023-08-21T10:08:53;102440.25;;;22.46;55.73
54920;BME280;63804;53.120;8.764;2023-08-21T10:11:21;102435.59;;;22.38;56.11
54920;BME280;63804;53.120;8.764;2023-08-21T10:13:49;102437.84;;;22.43;55.72
54920;BME280;63804;53.120;8.764;2023-08-21T10:16:19;102436.53;;;22.47;55.30
54920;BME280;63804;53.120;8.764;2023-08-21T10:18:48;102440.13;;;22.48;54.74
54920;BME280;63804;53.120;8.764;2023-08-21T10:21:18;102438.09;;;22.50;54.70
54920;BME280;63804;53.120;8.764;2023-08-21T10:23:50;102434.66;;;22.57;54.61
54920;BME280;63804;53.120;8.764;2023-08-21T10:26:22;102430.75;;;22.70;54.41
54920;BME280;63804;53.120;8.764;2023-08-21T10:28:54;102420.78;;;22.70;54.48
54920;BME280;63804;53.120;8.764;2023-08-21T10:33:53;102414.75;;;22.58;54.00
54920;BME280;63804;53.120;8.764;2023-08-21T10:39:17;102416.34;;;22.79;54.73
54920;BME280;63804;53.120;8.764;2023-08-21T10:42:10;102414.94;;;22.75;54.71
54920;BME280;63804;53.120;8.764;2023-08-21T10:47:22;102421.28;;;22.83;53.47
54920;BME280;63804;53.120;8.764;2023-08-21T10:49:52;102419.50;;;22.74;53.76
54920;BME280;63804;53.120;8.764;2023-08-21T10:52:25;102424.19;;;22.72;53.89
54920;BME280;63804;53.120;8.764;2023-08-21T10:54:55;102415.25;;;22.72;53.96
54920;BME280;63804;53.120;8.764;2023-08-21T10:57:23;102422.13;;;22.84;54.13
54920;BME280;63804;53.120;8.764;2023-08-21T11:00:00;102422.78;;;22.96;54.02
54920;BME280;63804;53.120;8.764;2023-08-21T11:02:29;102423.03;;;23.02;53.25
54920;BME280;63804;53.120;8.764;2023-08-21T11:04:58;102416.06;;;23.18;52.90
54920;BME280;63804;53.120;8.764;2023-08-21T11:07:26;102425.41;;;23.05;53.15
54920;BME280;63804;53.120;8.764;2023-08-21T11:09:54;102431.34;;;22.91;54.05
54920;BME280;63804;53.120;8.764;2023-08-21T11:12:23;102424.63;;;22.95;53.79
54920;BME280;63804;53.120;8.764;2023-08-21T11:14:51;102430.91;;;23.14;53.71
54920;BME280;63804;53.120;8.764;2023-08-21T11:17:18;102430.13;;;23.21;53.29
54920;BME280;63804;53.120;8.764;2023-08-21T11:19:46;102422.16;;;23.20;52.77
54920;BME280;63804;53.120;8.764;2023-08-21T11:22:16;102422.78;;;23.14;52.26
54920;BME280;63804;53.120;8.764;2023-08-21T11:24:46;102419.59;;;23.00;52.95
54920;BME280;63804;53.120;8.764;2023-08-21T11:27:16;102415.22;;;22.99;53.20
54920;BME280;63804;53.120;8.764;2023-08-21T11:29:46;102421.00;;;23.04;52.79
54920;BME280;63804;53.120;8.764;2023-08-21T11:32:19;102420.38;;;23.10;52.32
54920;BME280;63804;53.120;8.764;2023-08-21T11:35:05;102420.94;;;23.14;51.42
54920;BME280;63804;53.120;8.764;2023-08-21T11:37:32;102426.50;;;23.13;51.67
54920;BME280;63804;53.120;8.764;2023-08-21T11:40:07;102405.78;;;23.21;50.52
54920;BME280;63804;53.120;8.764;2023-08-21T11:42:34;102410.06;;;23.24;50.89
54920;BME280;63804;53.120;8.764;2023-08-21T11:45:02;102410.13;;;23.32;50.45
54920;BME280;63804;53.120;8.764;2023-08-21T11:47:34;102402.53;;;23.35;50.47
54920;BME280;63804;53.120;8.764;2023-08-21T11:50:04;102404.84;;;23.30;51.81
54920;BME280;63804;53.120;8.764;2023-08-21T11:52:33;102401.84;;;23.33;52.14
54920;BME280;63804;53.120;8.764;2023-08-21T11:55:00;102411.03;;;23.41;51.22
54920;BME280;63804;53.120;8.764;2023-08-21T11:57:28;102414.41;;;23.43;50.60
54920;BME280;63804;53.120;8.764;2023-08-21T11:59:57;102409.69;;;23.45;50.71
54920;BME280;63804;53.120;8.764;2023-08-21T12:02:26;102408.06;;;23.52;50.42
54920;BME280;63804;53.120;8.764;2023-08-21T12:05:02;102416.72;;;23.55;50.05
54920;BME280;63804;53.120;8.764;2023-08-21T12:07:33;102413.72;;;23.58;49.72
54920;BME280;63804;53.120;8.764;2023-08-21T12:10:01;102418.59;;;23.55;49.74
54920;BME280;63804;53.120;8.764;2023-08-21T12:12:28;102413.84;;;23.57;49.42
54920;BME280;63804;53.120;8.764;2023-08-21T12:14:56;102409.34;;;23.66;49.41
54920;BME280;63804;53.120;8.764;2023-08-21T12:17:24;102412.59;;;23.69;48.11
54920;BME280;63804;53.120;8.764;2023-08-21T12:19:51;102407.41;;;23.76;48.87
54920;BME280;63804;53.120;8.764;2023-08-21T12:22:18;102405.78;;;23.83;48.79
54920;BME280;63804;53.120;8.764;2023-08-21T12:24:46;102410.56;;;23.89;48.12
54920;BME280;63804;53.120;8.764;2023-08-21T12:27:14;102403.28;;;23.90;46.91
54920;BME280;63804;53.120;8.764;2023-08-21T12:29:41;102397.69;;;23.91;46.91
54920;BME280;63804;53.120;8.764;2023-08-21T12:32:09;102399.47;;;24.00;46.58
54920;BME280;63804;53.120;8.764;2023-08-21T12:34:36;102403.38;;;24.06;46.02
54920;BME280;63804;53.120;8.764;2023-08-21T12:37:03;102391.13;;;23.94;45.62
54920;BME280;63804;53.120;8.764;2023-08-21T12:39:31;102384.03;;;23.93;45.75
54920;BME280;63804;53.120;8.764;2023-08-21T12:41:58;102390.09;;;23.95;46.55
54920;BME280;63804;53.120;8.764;2023-08-21T12:44:25;102383.56;;;24.05;46.37
54920;BME280;63804;53.120;8.764;2023-08-21T12:46:53;102385.66;;;24.12;45.75
54920;BME280;63804;53.120;8.764;2023-08-21T12:49:20;102387.00;;;24.16;45.43
54920;BME280;63804;53.120;8.764;2023-08-21T12:51:48;102380.91;;;24.14;45.72
54920;BME280;63804;53.120;8.764;2023-08-21T12:54:15;102374.47;;;24.15;45.62
54920;BME280;63804;53.120;8.764;2023-08-21T12:56:43;102381.06;;;24.12;46.52
54920;BME280;63804;53.120;8.764;2023-08-21T12:59:10;102382.97;;;24.20;45.35
54920;BME280;63804;53.120;8.764;2023-08-21T13:01:38;102379.06;;;24.22;43.97
54920;BME280;63804;53.120;8.764;2023-08-21T13:04:05;102381.31;;;24.27;43.97
54920;BME280;63804;53.120;8.764;2023-08-21T13:06:33;102379.28;;;24.37;44.10
54920;BME280;63804;53.120;8.764;2023-08-21T13:09:00;102373.84;;;24.29;45.05